createdAt,value
2022-08-17T00:00:42.926Z,53.72
2022-08-17T00:04:50.338Z,53.76
2022-08-17T00:08:55.015Z,53.77
2022-08-17T00:12:56.794Z,53.69
2022-08-17T00:16:58.947Z,54.17
2022-08-17T00:21:01.741Z,54.36
2022-08-17T00:25:09.010Z,54.55
2022-08-17T00:29:10.689Z,54.43
2022-08-17T00:33:25.964Z,54.59
2022-08-17T00:37:27.833Z,54.09
2022-08-17T00:41:29.786Z,54.33
2022-08-17T00:45:32.638Z,53.80
2022-08-17T00:49:34.246Z,54.30
2022-08-17T00:53:42.193Z,53.88
2022-08-17T00:57:46.987Z,54.35
2022-08-17T01:01:50.386Z,53.97
2022-08-17T01:05:55.983Z,54.30
2022-08-17T01:10:00.197Z,53.99
2022-08-17T01:14:01.916Z,54.03
2022-08-17T01:18:07.895Z,53.87
2022-08-17T01:22:11.017Z,53.72
2022-08-17T01:26:12.626Z,53.70
2022-08-17T01:30:57.376Z,54.12
2022-08-17T01:34:42.440Z,53.93
2022-08-17T01:38:45.182Z,53.88
2022-08-17T01:43:00.967Z,54.13
2022-08-17T01:47:02.854Z,53.82
2022-08-17T01:51:07.619Z,54.17
2022-08-17T01:55:10.220Z,53.79
2022-08-17T01:59:13.006Z,54.01
2022-08-17T02:03:17.262Z,54.11
2022-08-17T02:07:19.321Z,54.16
2022-08-17T02:11:28.477Z,54.04
2022-08-17T02:15:32.041Z,54.13
2022-08-17T02:19:33.619Z,54.54
2022-08-17T02:23:40.513Z,54.79
2022-08-17T02:27:42.660Z,54.74
2022-08-17T02:31:44.347Z,55.02
2022-08-17T02:35:46.012Z,55.09
2022-08-17T02:39:47.873Z,54.91
2022-08-17T02:43:49.494Z,54.92
2022-08-17T02:47:52.160Z,54.85
2022-08-17T02:51:53.684Z,54.69
2022-08-17T02:55:55.266Z,54.94
2022-08-17T02:59:56.835Z,55.12
2022-08-17T03:03:59.000Z,55.29
2022-08-17T03:08:00.723Z,55.20
2022-08-17T03:12:12.508Z,55.19
2022-08-17T03:16:14.124Z,55.83
2022-08-17T03:20:16.304Z,56.64
2022-08-17T03:24:18.094Z,56.94
2022-08-17T03:28:20.225Z,57.46
2022-08-17T03:32:22.239Z,57.95
2022-08-17T03:36:23.860Z,58.43
2022-08-17T03:40:36.954Z,59.27
2022-08-17T03:44:51.509Z,59.85
2022-08-17T03:49:11.784Z,60.45
2022-08-17T03:53:36.530Z,61.00
2022-08-17T03:57:40.867Z,61.16
2022-08-17T04:01:46.975Z,62.05
2022-08-17T04:05:48.559Z,62.21
2022-08-17T04:09:50.356Z,62.44
2022-08-17T04:13:52.035Z,62.61
2022-08-17T04:17:53.696Z,62.57
2022-08-17T04:21:55.304Z,62.69
2022-08-17T04:25:57.377Z,62.88
2022-08-17T04:29:59.004Z,63.04
2022-08-17T04:34:00.593Z,63.30
2022-08-17T04:38:02.214Z,63.38
2022-08-17T04:42:17.253Z,62.83
2022-08-17T04:46:21.378Z,62.83
2022-08-17T04:50:22.979Z,62.87
2022-08-17T04:54:25.497Z,62.81
2022-08-17T04:58:27.341Z,63.07
2022-08-17T05:02:28.939Z,63.42
2022-08-17T05:06:30.554Z,63.07
2022-08-17T05:10:35.679Z,63.43
2022-08-17T05:14:39.613Z,64.64
2022-08-17T05:18:41.387Z,65.12
2022-08-17T05:22:51.574Z,65.74
2022-08-17T05:26:53.254Z,65.40
2022-08-17T05:30:59.483Z,66.12
2022-08-17T05:35:01.052Z,66.40
2022-08-17T05:39:02.798Z,66.88
2022-08-17T05:43:12.995Z,67.33
2022-08-17T05:47:14.620Z,66.95
2022-08-17T05:51:27.467Z,66.64
2022-08-17T05:55:35.667Z,66.34
2022-08-17T06:00:03.309Z,66.42
2022-08-17T06:04:30.482Z,65.44
2022-08-17T06:08:51.795Z,65.56
2022-08-17T06:13:28.051Z,64.91
2022-08-17T06:17:31.182Z,65.21
2022-08-17T06:21:42.597Z,65.14
2022-08-17T06:25:52.240Z,65.03
2022-08-17T06:30:22.315Z,65.19
2022-08-17T06:34:24.039Z,65.03
2022-08-17T06:38:38.501Z,65.00
2022-08-17T06:43:14.606Z,65.09
2022-08-17T06:47:41.838Z,64.40
2022-08-17T06:51:53.661Z,64.62
2022-08-17T06:56:01.693Z,63.86
2022-08-17T07:00:07.964Z,63.26
2022-08-17T07:04:16.956Z,62.71
2022-08-17T07:08:51.237Z,61.62
2022-08-17T07:12:59.019Z,61.09
2022-08-17T07:17:07.056Z,60.89
2022-08-17T07:21:19.192Z,60.33
2022-08-17T07:25:23.463Z,60.15
2022-08-17T07:29:25.205Z,60.70
2022-08-17T07:33:29.714Z,60.33
2022-08-17T07:37:33.731Z,60.48
2022-08-17T07:41:53.151Z,60.45
2022-08-17T07:46:40.827Z,60.97
2022-08-17T07:50:42.446Z,60.76
2022-08-17T07:54:51.121Z,60.97
2022-08-17T07:59:10.418Z,60.90
2022-08-17T08:03:27.162Z,62.76
2022-08-17T08:07:35.990Z,64.02
2022-08-17T08:11:41.271Z,64.16
2022-08-17T08:15:53.750Z,64.31
2022-08-17T08:19:58.879Z,65.96
2022-08-17T08:24:30.855Z,67.35
2022-08-17T08:28:47.871Z,66.58
2022-08-17T08:32:54.951Z,67.25
2022-08-17T08:37:32.741Z,66.94
2022-08-17T08:42:00.123Z,67.67
2022-08-17T08:46:33.288Z,66.71
2022-08-17T08:50:48.543Z,65.59
2022-08-17T08:55:28.821Z,63.66
2022-08-17T08:59:45.156Z,63.75
2022-08-17T09:04:24.742Z,61.46
2022-08-17T09:08:45.603Z,61.07
2022-08-17T09:13:10.135Z,62.24
2022-08-17T09:17:44.897Z,61.65
2022-08-17T09:21:54.493Z,62.58
2022-08-17T09:26:07.175Z,62.59
2022-08-17T09:30:09.859Z,62.36
2022-08-17T09:34:17.272Z,61.89
2022-08-17T09:38:35.246Z,61.47
2022-08-17T09:42:49.167Z,59.48
2022-08-17T09:46:56.023Z,57.82
2022-08-17T09:51:20.101Z,56.70
2022-08-17T09:55:28.140Z,55.88
2022-08-17T09:59:41.903Z,55.32
2022-08-17T10:04:05.603Z,55.28
2022-08-17T10:08:24.087Z,54.53
2022-08-17T10:13:05.877Z,53.64
2022-08-17T10:17:26.332Z,51.20
2022-08-17T10:21:47.865Z,51.63
2022-08-17T10:26:04.789Z,51.61
2022-08-17T10:30:09.940Z,51.13
2022-08-17T10:34:28.691Z,50.43
2022-08-17T10:38:37.139Z,50.02
2022-08-17T10:43:10.265Z,49.35
2022-08-17T10:47:15.728Z,50.59
2022-08-17T10:51:37.962Z,51.20
2022-08-17T10:55:41.588Z,52.59
2022-08-17T10:59:43.106Z,53.32
2022-08-17T11:03:56.935Z,56.34
2022-08-17T11:08:05.378Z,55.59
2022-08-17T11:12:26.654Z,56.47
2022-08-17T11:16:53.324Z,56.66
2022-08-17T11:21:20.325Z,56.07
2022-08-17T11:25:33.105Z,54.91
2022-08-17T11:29:52.951Z,53.85
2022-08-17T11:34:04.535Z,52.10
2022-08-17T11:38:47.286Z,51.05
2022-08-17T11:43:21.273Z,49.46
2022-08-17T11:48:25.876Z,47.39
2022-08-17T11:52:47.485Z,46.22
2022-08-17T11:56:50.817Z,45.68
2022-08-17T12:01:29.377Z,44.11
2022-08-17T12:05:33.357Z,43.84
2022-08-17T12:09:40.259Z,42.62
2022-08-17T12:13:50.104Z,41.27
2022-08-17T12:17:54.042Z,39.37
2022-08-17T12:21:57.793Z,38.13
2022-08-17T12:26:07.818Z,37.58
2022-08-17T12:30:12.526Z,36.46
2022-08-17T12:34:26.721Z,36.74
2022-08-17T12:38:33.180Z,37.46
2022-08-17T12:42:39.443Z,37.62
2022-08-17T12:47:01.781Z,37.68
2022-08-17T12:51:07.895Z,36.62
2022-08-17T12:55:21.223Z,36.21
2022-08-17T12:59:29.895Z,36.76
2022-08-17T13:03:39.627Z,36.93
2022-08-17T13:07:42.648Z,36.11
2022-08-17T13:11:56.415Z,36.21
2022-08-17T13:16:01.193Z,36.84
2022-08-17T13:20:13.380Z,37.46
2022-08-17T13:24:37.913Z,37.93
2022-08-17T13:28:47.394Z,37.00
2022-08-17T13:32:48.989Z,36.03
2022-08-17T13:37:13.981Z,35.72
2022-08-17T13:41:36.281Z,33.88
2022-08-17T13:45:43.527Z,33.53
2022-08-17T13:49:48.814Z,33.01
2022-08-17T13:53:58.362Z,32.79
2022-08-17T13:58:06.634Z,33.31
2022-08-17T14:02:11.306Z,32.70
2022-08-17T14:06:12.938Z,32.73
2022-08-17T14:10:36.487Z,32.53
2022-08-17T14:14:39.618Z,30.79
2022-08-17T14:18:56.548Z,30.37
2022-08-17T14:22:59.044Z,30.08
2022-08-17T14:27:03.391Z,30.73
2022-08-17T14:31:07.549Z,31.08
2022-08-17T14:35:11.252Z,31.44
2022-08-17T14:39:14.239Z,31.22
2022-08-17T14:43:15.951Z,31.35
2022-08-17T14:47:17.477Z,31.69
2022-08-17T14:51:21.330Z,31.82
2022-08-17T14:55:22.961Z,31.62
2022-08-17T14:59:26.367Z,32.24
2022-08-17T15:03:28.607Z,32.41
2022-08-17T15:07:30.966Z,32.49
2022-08-17T15:11:32.915Z,32.31
2022-08-17T15:15:34.628Z,32.69
2022-08-17T15:19:36.212Z,32.98
2022-08-17T15:23:39.807Z,33.16
2022-08-17T15:27:42.364Z,32.88
2022-08-17T15:31:43.992Z,33.67
2022-08-17T15:35:45.795Z,33.49
2022-08-17T15:39:47.461Z,33.92
2022-08-17T15:43:52.287Z,33.86
2022-08-17T15:47:54.314Z,34.06
2022-08-17T15:51:55.809Z,34.04
2022-08-17T15:55:57.415Z,34.15
2022-08-17T15:59:59.313Z,33.96
2022-08-17T16:04:07.183Z,33.08
2022-08-17T16:08:23.888Z,33.41
2022-08-17T16:12:26.376Z,33.10
2022-08-17T16:16:29.055Z,33.12
2022-08-17T16:20:31.113Z,33.15
2022-08-17T16:24:33.233Z,32.75
2022-08-17T16:28:36.434Z,32.71
2022-08-17T16:32:38.503Z,32.76
2022-08-17T16:36:40.288Z,32.90
2022-08-17T16:40:42.595Z,33.40
2022-08-17T16:44:44.164Z,33.67
2022-08-17T16:48:46.507Z,34.12
2022-08-17T16:52:49.095Z,34.00
2022-08-17T16:56:51.013Z,34.26
2022-08-17T17:00:52.652Z,34.71
2022-08-17T17:05:03.166Z,34.33
2022-08-17T17:09:12.524Z,34.65
2022-08-17T17:13:25.244Z,34.98
2022-08-17T17:17:32.855Z,34.86
2022-08-17T17:22:07.771Z,34.88
2022-08-17T17:26:21.154Z,35.28
2022-08-17T17:30:48.334Z,35.55
2022-08-17T17:34:56.658Z,36.14
2022-08-17T17:39:17.412Z,36.61
2022-08-17T17:43:39.016Z,36.85
2022-08-17T17:47:42.284Z,37.05
2022-08-17T17:52:10.156Z,37.23
2022-08-17T17:56:43.994Z,37.48
2022-08-17T18:01:09.310Z,37.34
2022-08-17T18:05:15.434Z,37.67
2022-08-17T18:09:39.062Z,38.38
2022-08-17T18:14:07.639Z,38.41
2022-08-17T18:18:38.077Z,38.85
2022-08-17T18:22:39.835Z,39.28
2022-08-17T18:26:43.805Z,39.91
2022-08-17T18:31:19.256Z,39.95
2022-08-17T18:35:22.303Z,40.44
2022-08-17T18:39:28.621Z,40.88
2022-08-17T18:43:44.147Z,41.40
2022-08-17T18:47:56.264Z,41.64
2022-08-17T18:52:23.180Z,42.31
2022-08-17T18:56:30.650Z,42.44
2022-08-17T19:00:38.328Z,42.72
2022-08-17T19:05:09.331Z,42.72
2022-08-17T19:09:33.843Z,43.46
2022-08-17T19:13:42.058Z,43.24
2022-08-17T19:18:00.235Z,44.07
2022-08-17T19:22:28.962Z,44.20
2022-08-17T19:26:54.075Z,44.23
2022-08-17T19:30:59.587Z,44.31
2022-08-17T19:35:02.181Z,44.18
2022-08-17T19:39:12.486Z,44.93
2022-08-17T19:43:21.503Z,45.04
2022-08-17T19:47:54.689Z,45.27
2022-08-17T19:52:39.417Z,45.68
2022-08-17T19:56:47.952Z,45.42
2022-08-17T20:00:52.122Z,45.84
2022-08-17T20:04:59.178Z,46.17
2022-08-17T20:09:15.384Z,46.71
2022-08-17T20:13:33.006Z,46.94
2022-08-17T20:17:40.325Z,47.43
2022-08-17T20:21:49.534Z,48.10
2022-08-17T20:26:08.111Z,48.49
2022-08-17T20:30:13.219Z,48.62
2022-08-17T20:34:46.486Z,49.15
2022-08-17T20:38:56.792Z,49.00
2022-08-17T20:42:59.728Z,49.26
2022-08-17T20:47:07.224Z,49.29
2022-08-17T20:51:27.171Z,49.89
2022-08-17T20:55:51.534Z,49.76
2022-08-17T20:59:55.300Z,50.12
2022-08-17T21:03:57.190Z,49.88
2022-08-17T21:08:13.150Z,49.92
2022-08-17T21:12:39.371Z,50.74
2022-08-17T21:17:15.431Z,50.83
2022-08-17T21:21:19.850Z,51.08
2022-08-17T21:25:25.437Z,51.08
2022-08-17T21:29:33.767Z,51.29
2022-08-17T21:33:39.620Z,51.90
2022-08-17T21:37:50.542Z,51.86
2022-08-17T21:41:56.788Z,52.18
2022-08-17T21:46:08.981Z,52.23
2022-08-17T21:50:18.709Z,52.82
2022-08-17T21:54:38.738Z,52.73
2022-08-17T21:58:45.439Z,52.82
2022-08-17T22:03:01.057Z,53.53
2022-08-17T22:07:09.321Z,53.22
2022-08-17T22:11:10.909Z,53.50
2022-08-17T22:15:17.739Z,53.72
2022-08-17T22:19:21.128Z,53.41
2022-08-17T22:23:51.315Z,53.61
2022-08-17T22:28:00.317Z,53.21
2022-08-17T22:32:01.887Z,53.61
2022-08-17T22:36:28.915Z,54.04
2022-08-17T22:40:33.682Z,54.01
2022-08-17T22:44:44.868Z,53.89
2022-08-17T22:48:50.301Z,54.01
2022-08-17T22:53:22.864Z,54.54
2022-08-17T22:57:43.600Z,54.47
2022-08-17T23:02:13.700Z,54.09
2022-08-17T23:06:15.293Z,54.16
2022-08-17T23:10:16.860Z,54.33
2022-08-17T23:14:21.461Z,54.66
2022-08-17T23:18:23.540Z,54.67
2022-08-17T23:22:25.217Z,54.83
2022-08-17T23:26:27.837Z,55.48
2022-08-17T23:30:32.494Z,55.62
2022-08-17T23:34:34.169Z,56.60
2022-08-17T23:38:36.260Z,56.56
2022-08-17T23:42:43.389Z,56.63
2022-08-17T23:46:48.043Z,57.59
2022-08-17T23:50:52.908Z,57.83
2022-08-17T23:54:54.532Z,58.24
2022-08-17T23:58:56.148Z,58.92
